createdAt,value
2023-01-03T00:01:29.189Z,9.74
2023-01-03T00:03:58.801Z,9.47
2023-01-03T00:06:36.052Z,9.86
2023-01-03T00:09:10.470Z,9.01
2023-01-03T00:11:56.384Z,9.70
2023-01-03T00:14:26.096Z,8.57
2023-01-03T00:16:58.926Z,9.57
2023-01-03T00:19:29.381Z,9.30
2023-01-03T00:21:55.922Z,8.86
2023-01-03T00:24:30.446Z,9.30
2023-01-03T00:27:01.154Z,8.75
2023-01-03T00:29:27.348Z,8.82
2023-01-03T00:31:53.517Z,9.05
2023-01-03T00:34:23.872Z,9.29
2023-01-03T00:36:52.818Z,8.24
2023-01-03T00:39:18.915Z,9.03
2023-01-03T00:41:45.028Z,9.07
2023-01-03T00:44:18.989Z,8.69
2023-01-03T00:46:45.450Z,9.40
2023-01-03T00:49:11.715Z,9.55
2023-01-03T00:51:39.771Z,9.49
2023-01-03T00:54:15.290Z,7.65
2023-01-03T00:56:43.350Z,9.54
2023-01-03T00:59:10.269Z,9.53
2023-01-03T01:01:46.205Z,9.59
2023-01-03T01:04:21.539Z,9.28
2023-01-03T01:06:50.582Z,8.86
2023-01-03T01:09:21.959Z,8.99
2023-01-03T01:11:52.625Z,8.88
2023-01-03T01:14:20.979Z,8.98
2023-01-03T01:16:49.924Z,9.08
2023-01-03T01:19:17.204Z,8.82
2023-01-03T01:21:48.238Z,8.91
2023-01-03T01:24:17.909Z,8.87
2023-01-03T01:26:45.161Z,7.05
2023-01-03T01:29:12.399Z,8.75
2023-01-03T01:31:43.313Z,8.91
2023-01-03T01:34:09.542Z,9.03
2023-01-03T01:36:37.007Z,8.80
2023-01-03T01:39:07.543Z,7.48
2023-01-03T01:41:55.346Z,8.81
2023-01-03T01:45:08.676Z,9.11
2023-01-03T01:47:42.182Z,8.79
2023-01-03T01:50:15.311Z,8.88
2023-01-03T01:52:50.812Z,9.04
2023-01-03T01:55:30.594Z,9.06
2023-01-03T01:58:07.288Z,7.98
2023-01-03T02:00:39.470Z,8.90
2023-01-03T02:03:10.533Z,8.96
2023-01-03T02:05:49.465Z,8.55
2023-01-03T02:08:20.588Z,8.86
2023-01-03T02:11:06.232Z,8.75
2023-01-03T02:13:55.513Z,8.79
2023-01-03T02:16:43.797Z,8.84
2023-01-03T02:19:32.782Z,8.97
2023-01-03T02:22:08.193Z,8.46
2023-01-03T02:25:06.098Z,8.07
2023-01-03T02:28:07.223Z,8.30
2023-01-03T02:30:40.103Z,7.96
2023-01-03T02:33:25.408Z,8.37
2023-01-03T02:36:15.566Z,8.41
2023-01-03T02:39:03.221Z,8.34
2023-01-03T02:41:46.865Z,8.62
2023-01-03T02:44:27.486Z,8.71
2023-01-03T02:47:04.750Z,7.34
2023-01-03T02:49:41.045Z,8.78
2023-01-03T02:52:14.530Z,8.75
2023-01-03T02:54:52.695Z,8.86
2023-01-03T02:57:43.396Z,8.46
2023-01-03T03:00:15.435Z,9.04
2023-01-03T03:02:51.104Z,8.72
2023-01-03T03:05:25.396Z,8.85
2023-01-03T03:07:55.631Z,9.02
2023-01-03T03:10:44.821Z,7.09
2023-01-03T03:13:36.956Z,8.94
2023-01-03T03:16:42.436Z,8.77
2023-01-03T03:19:37.091Z,8.79
2023-01-03T03:22:32.784Z,4.29
2023-01-03T03:25:10.406Z,7.99
2023-01-03T03:28:00.456Z,8.66
2023-01-03T03:30:36.764Z,8.86
2023-01-03T03:33:10.173Z,8.72
2023-01-03T03:36:03.835Z,8.83
2023-01-03T03:38:37.518Z,8.81
2023-01-03T03:41:39.693Z,8.69
2023-01-03T03:45:01.932Z,8.68
2023-01-03T03:47:45.219Z,8.59
2023-01-03T03:50:34.605Z,8.43
2023-01-03T03:53:07.801Z,8.40
2023-01-03T03:55:52.092Z,8.26
2023-01-03T03:58:28.918Z,8.43
2023-01-03T04:00:56.013Z,8.66
2023-01-03T04:03:23.021Z,8.79
2023-01-03T04:05:59.269Z,8.81
2023-01-03T04:08:25.421Z,8.65
2023-01-03T04:11:04.653Z,8.62
2023-01-03T04:13:37.048Z,8.61
2023-01-03T04:16:04.441Z,8.07
2023-01-03T04:18:30.647Z,8.63
2023-01-03T04:20:56.777Z,8.46
2023-01-03T04:23:27.127Z,8.66
2023-01-03T04:25:56.584Z,8.55
2023-01-03T04:28:26.046Z,8.40
2023-01-03T04:30:55.409Z,8.61
2023-01-03T04:33:24.999Z,8.70
2023-01-03T04:35:54.429Z,8.56
2023-01-03T04:38:23.926Z,8.40
2023-01-03T04:41:05.837Z,8.70
2023-01-03T04:43:50.207Z,8.43
2023-01-03T04:46:16.475Z,7.34
2023-01-03T04:48:47.064Z,8.34
2023-01-03T04:51:13.998Z,7.80
2023-01-03T04:53:40.226Z,7.54
2023-01-03T04:56:06.627Z,6.97
2023-01-03T04:58:40.702Z,7.62
2023-01-03T05:01:09.695Z,7.71
2023-01-03T05:03:37.176Z,7.77
2023-01-03T05:06:07.271Z,7.52
2023-01-03T05:08:38.056Z,7.22
2023-01-03T05:11:05.516Z,7.77
2023-01-03T05:13:32.338Z,5.99
2023-01-03T05:16:10.119Z,7.75
2023-01-03T05:18:41.484Z,6.38
2023-01-03T05:21:30.912Z,7.49
2023-01-03T05:24:19.863Z,7.33
2023-01-03T05:26:50.835Z,7.81
2023-01-03T05:29:19.711Z,7.38
2023-01-03T05:31:50.260Z,7.55
2023-01-03T05:34:20.242Z,7.57
2023-01-03T05:36:51.249Z,7.44
2023-01-03T05:39:26.038Z,6.77
2023-01-03T05:42:00.191Z,7.40
2023-01-03T05:44:32.391Z,7.58
2023-01-03T05:47:07.766Z,5.82
2023-01-03T05:49:37.736Z,7.71
2023-01-03T05:52:08.004Z,7.12
2023-01-03T05:54:38.139Z,7.73
2023-01-03T05:57:09.424Z,7.77
2023-01-03T05:59:39.741Z,7.74
2023-01-03T06:02:10.304Z,7.74
2023-01-03T06:04:45.555Z,7.76
2023-01-03T06:07:15.883Z,7.67
2023-01-03T06:09:45.939Z,7.76
2023-01-03T06:12:16.495Z,7.45
2023-01-03T06:14:47.172Z,7.48
2023-01-03T06:17:35.672Z,7.66
2023-01-03T06:20:09.303Z,7.16
2023-01-03T06:22:40.086Z,7.51
2023-01-03T06:25:11.813Z,6.99
2023-01-03T06:27:47.117Z,6.90
2023-01-03T06:30:17.541Z,6.24
2023-01-03T06:32:47.589Z,6.51
2023-01-03T06:35:18.656Z,6.45
2023-01-03T06:37:48.736Z,6.20
2023-01-03T06:40:19.531Z,6.41
2023-01-03T06:42:50.491Z,6.18
2023-01-03T06:45:42.135Z,7.12
2023-01-03T06:48:27.567Z,6.88
2023-01-03T06:51:16.929Z,6.83
2023-01-03T06:53:48.222Z,6.47
2023-01-03T06:56:14.271Z,6.86
2023-01-03T06:58:44.818Z,7.06
2023-01-03T07:01:15.037Z,6.82
2023-01-03T07:03:45.354Z,6.99
2023-01-03T07:06:11.440Z,6.61
2023-01-03T07:08:47.915Z,6.14
2023-01-03T07:11:18.203Z,6.92
2023-01-03T07:14:00.233Z,7.06
2023-01-03T07:16:40.589Z,7.12
2023-01-03T07:19:13.480Z,6.98
2023-01-03T07:21:47.763Z,6.93
2023-01-03T07:24:18.480Z,7.11
2023-01-03T07:26:48.430Z,7.02
2023-01-03T07:29:18.674Z,6.65
2023-01-03T07:31:49.572Z,6.96
2023-01-03T07:34:20.086Z,7.10
2023-01-03T07:36:50.091Z,6.92
2023-01-03T07:39:24.043Z,6.84
2023-01-03T07:42:12.506Z,5.94
2023-01-03T07:44:42.785Z,6.60
2023-01-03T07:47:12.763Z,6.53
2023-01-03T07:49:43.235Z,6.60
2023-01-03T07:52:13.277Z,6.53
2023-01-03T07:54:47.882Z,6.57
2023-01-03T07:57:17.262Z,6.64
2023-01-03T07:59:47.259Z,5.71
2023-01-03T08:02:18.596Z,6.57
2023-01-03T08:04:47.055Z,6.44
2023-01-03T08:07:17.618Z,6.50
2023-01-03T08:10:06.301Z,7.02
2023-01-03T08:12:55.801Z,7.03
2023-01-03T08:15:21.844Z,7.05
2023-01-03T08:17:47.928Z,7.47
2023-01-03T08:20:17.917Z,7.62
2023-01-03T08:22:44.790Z,7.66
2023-01-03T08:25:11.016Z,7.79
2023-01-03T08:27:37.074Z,7.77
2023-01-03T08:30:07.850Z,7.86
2023-01-03T08:32:34.174Z,7.72
2023-01-03T08:35:00.607Z,7.73
2023-01-03T08:37:27.469Z,7.74
2023-01-03T08:40:04.184Z,7.11
2023-01-03T08:42:30.520Z,8.09
2023-01-03T08:45:01.028Z,8.19
2023-01-03T08:47:28.333Z,6.61
2023-01-03T08:49:58.563Z,7.94
2023-01-03T08:52:27.886Z,8.40
2023-01-03T08:54:57.878Z,8.42
2023-01-03T08:57:25.303Z,8.25
2023-01-03T08:59:55.796Z,8.36
2023-01-03T09:02:26.129Z,8.07
2023-01-03T09:04:55.928Z,8.01
2023-01-03T09:07:26.095Z,7.94
2023-01-03T09:09:59.180Z,7.72
2023-01-03T09:12:27.076Z,7.91
2023-01-03T09:14:56.325Z,7.72
2023-01-03T09:17:30.764Z,8.08
2023-01-03T09:20:00.392Z,8.22
2023-01-03T09:22:31.053Z,8.16
2023-01-03T09:24:59.545Z,8.34
2023-01-03T09:27:28.774Z,7.86
2023-01-03T09:29:58.416Z,8.08
2023-01-03T09:32:28.351Z,7.95
2023-01-03T09:35:02.823Z,7.92
2023-01-03T09:37:31.002Z,8.46
2023-01-03T09:40:00.678Z,7.81
2023-01-03T09:42:48.569Z,8.30
2023-01-03T09:45:17.481Z,8.40
2023-01-03T09:47:44.270Z,8.63
2023-01-03T09:50:50.707Z,9.00
2023-01-03T09:53:45.733Z,8.63
2023-01-03T09:56:34.337Z,8.73
2023-01-03T09:59:34.900Z,9.16
2023-01-03T10:03:02.496Z,9.78
2023-01-03T10:05:50.646Z,9.77
2023-01-03T10:08:32.955Z,8.99
2023-01-03T10:11:07.302Z,9.64
2023-01-03T10:13:37.641Z,10.25
2023-01-03T10:16:10.475Z,10.39
2023-01-03T10:19:17.106Z,10.24
2023-01-03T10:21:59.254Z,10.70
2023-01-03T10:24:44.395Z,10.82
2023-01-03T10:27:21.371Z,11.08
2023-01-03T10:29:51.739Z,10.93
2023-01-03T10:32:41.193Z,11.03
2023-01-03T10:35:16.199Z,11.39
2023-01-03T10:37:52.982Z,11.33
2023-01-03T10:40:43.577Z,11.28
2023-01-03T10:43:29.167Z,11.01
2023-01-03T10:46:21.032Z,11.83
2023-01-03T10:49:25.806Z,11.47
2023-01-03T10:51:53.703Z,11.79
2023-01-03T10:54:29.293Z,11.84
2023-01-03T10:56:59.735Z,11.42
2023-01-03T10:59:31.369Z,11.35
2023-01-03T11:01:59.987Z,11.19
2023-01-03T11:04:30.938Z,11.39
2023-01-03T11:07:00.130Z,11.73
2023-01-03T11:09:33.574Z,11.87
2023-01-03T11:12:11.105Z,11.53
2023-01-03T11:14:37.203Z,11.26
2023-01-03T11:17:05.051Z,11.29
2023-01-03T11:19:34.605Z,10.75
2023-01-03T11:22:23.597Z,11.34
2023-01-03T11:25:07.307Z,11.33
2023-01-03T11:28:19.043Z,10.91
2023-01-03T11:31:07.742Z,10.71
2023-01-03T11:33:48.071Z,10.57
2023-01-03T11:36:37.792Z,10.15
2023-01-03T11:39:35.906Z,10.56
2023-01-03T11:42:39.025Z,10.36
2023-01-03T11:45:46.396Z,10.15
2023-01-03T11:49:06.256Z,10.22
2023-01-03T11:51:36.130Z,9.80
2023-01-03T11:54:11.377Z,9.81
2023-01-03T11:56:46.240Z,9.58
2023-01-03T11:59:31.590Z,9.80
2023-01-03T12:02:25.497Z,9.92
2023-01-03T12:05:44.429Z,9.84
2023-01-03T12:08:17.845Z,9.48
2023-01-03T12:11:02.375Z,9.23
2023-01-03T12:14:11.633Z,9.30
2023-01-03T12:16:50.899Z,9.32
2023-01-03T12:19:42.664Z,9.29
2023-01-03T12:22:28.941Z,9.37
2023-01-03T12:25:05.468Z,9.53
2023-01-03T12:27:35.455Z,9.63
2023-01-03T12:30:35.919Z,9.09
2023-01-03T12:33:38.299Z,9.04
2023-01-03T12:36:28.233Z,9.36
2023-01-03T12:39:03.729Z,9.45
2023-01-03T12:41:42.717Z,9.66
2023-01-03T12:44:22.241Z,9.26
2023-01-03T12:46:51.486Z,9.42
2023-01-03T12:49:23.765Z,9.45
2023-01-03T12:51:58.662Z,9.37
2023-01-03T12:54:38.078Z,8.80
2023-01-03T12:57:17.701Z,9.39
2023-01-03T13:00:04.301Z,9.69
2023-01-03T13:02:52.686Z,9.84
2023-01-03T13:05:28.619Z,9.45
2023-01-03T13:08:11.204Z,9.45
2023-01-03T13:10:45.319Z,9.37
2023-01-03T13:13:17.692Z,9.24
2023-01-03T13:15:48.330Z,9.14
2023-01-03T13:18:22.137Z,9.21
2023-01-03T13:20:53.409Z,9.03
2023-01-03T13:23:31.844Z,9.07
2023-01-03T13:26:06.619Z,8.98
2023-01-03T13:28:38.089Z,9.03
2023-01-03T13:31:16.902Z,9.07
2023-01-03T13:33:53.206Z,9.10
2023-01-03T13:36:19.730Z,8.93
2023-01-03T13:38:46.633Z,8.34
2023-01-03T13:41:35.943Z,8.93
2023-01-03T13:44:18.893Z,8.90
2023-01-03T13:46:45.772Z,8.69
2023-01-03T13:49:18.131Z,8.69
2023-01-03T13:51:47.811Z,8.85
2023-01-03T13:54:16.823Z,9.00
2023-01-03T13:56:53.680Z,8.94
2023-01-03T13:59:50.593Z,9.03
2023-01-03T14:02:52.002Z,8.92
2023-01-03T14:05:45.701Z,9.04
2023-01-03T14:08:33.383Z,8.90
2023-01-03T14:11:22.105Z,8.87
2023-01-03T14:13:49.513Z,7.96
2023-01-03T14:16:24.222Z,8.77
2023-01-03T14:19:03.807Z,8.96
2023-01-03T14:21:41.028Z,8.64
2023-01-03T14:24:15.838Z,8.94
2023-01-03T14:26:46.069Z,2.96
2023-01-03T14:29:19.873Z,8.85
2023-01-03T14:31:49.694Z,9.08
2023-01-03T14:34:39.954Z,7.31
2023-01-03T14:37:12.799Z,9.18
2023-01-03T14:40:17.159Z,9.23
2023-01-03T14:42:47.159Z,9.28
2023-01-03T14:45:18.944Z,9.27
2023-01-03T14:47:51.674Z,9.18
2023-01-03T14:50:26.017Z,9.14
2023-01-03T14:52:58.791Z,9.02
2023-01-03T14:55:31.085Z,9.08
2023-01-03T14:58:04.307Z,8.44
2023-01-03T15:00:38.961Z,9.01
2023-01-03T15:03:12.043Z,9.06
2023-01-03T15:05:42.745Z,9.06
2023-01-03T15:08:31.669Z,9.07
2023-01-03T15:11:03.394Z,8.83
2023-01-03T15:13:33.435Z,8.87
2023-01-03T15:16:05.928Z,8.69
2023-01-03T15:18:34.783Z,7.36
2023-01-03T15:21:01.559Z,8.82
2023-01-03T15:23:37.672Z,8.70
2023-01-03T15:26:20.057Z,7.86
2023-01-03T15:28:54.016Z,8.75
2023-01-03T15:31:26.293Z,8.76
2023-01-03T15:34:11.963Z,8.64
2023-01-03T15:36:45.690Z,8.80
2023-01-03T15:39:20.517Z,8.93
2023-01-03T15:42:43.484Z,7.31
2023-01-03T15:45:10.349Z,8.81
2023-01-03T15:47:42.121Z,8.11
2023-01-03T15:50:18.071Z,8.75
2023-01-03T15:52:49.120Z,8.88
2023-01-03T15:55:19.615Z,3.24
2023-01-03T15:57:53.343Z,8.53
2023-01-03T16:00:25.378Z,8.75
2023-01-03T16:02:55.559Z,7.29
2023-01-03T16:05:26.740Z,8.57
2023-01-03T16:07:57.255Z,8.49
2023-01-03T16:10:26.988Z,8.46
2023-01-03T16:12:56.219Z,8.52
2023-01-03T16:15:29.359Z,8.32
2023-01-03T16:17:59.339Z,8.63
2023-01-03T16:20:29.123Z,8.56
2023-01-03T16:23:01.833Z,8.44
2023-01-03T16:25:28.407Z,8.35
2023-01-03T16:27:58.044Z,8.47
2023-01-03T16:30:28.413Z,8.56
2023-01-03T16:33:01.635Z,8.43
2023-01-03T16:35:31.719Z,8.52
2023-01-03T16:38:01.423Z,8.59
2023-01-03T16:40:31.846Z,8.46
2023-01-03T16:43:01.366Z,8.51
2023-01-03T16:45:31.060Z,8.77
2023-01-03T16:48:00.230Z,8.48
2023-01-03T16:50:33.901Z,8.65
2023-01-03T16:53:00.096Z,8.55
2023-01-03T16:55:36.063Z,8.15
2023-01-03T16:58:02.269Z,8.37
2023-01-03T17:00:36.170Z,6.63
2023-01-03T17:03:04.900Z,8.31
2023-01-03T17:05:36.597Z,8.43
2023-01-03T17:08:17.209Z,8.49
2023-01-03T17:10:46.035Z,8.28
2023-01-03T17:13:26.582Z,8.55
2023-01-03T17:15:54.225Z,8.43
2023-01-03T17:18:32.375Z,8.31
2023-01-03T17:21:01.168Z,8.17
2023-01-03T17:23:28.432Z,6.40
2023-01-03T17:26:01.183Z,8.23
2023-01-03T17:28:31.728Z,8.11
2023-01-03T17:30:57.820Z,8.13
2023-01-03T17:33:30.216Z,8.10
2023-01-03T17:36:04.283Z,8.10
2023-01-03T17:38:32.562Z,8.13
2023-01-03T17:40:58.725Z,8.19
2023-01-03T17:43:24.932Z,8.06
2023-01-03T17:46:20.673Z,7.87
2023-01-03T17:49:07.870Z,8.10
2023-01-03T17:51:38.102Z,7.81
2023-01-03T17:54:08.891Z,7.13
2023-01-03T17:56:44.036Z,8.08
2023-01-03T17:59:14.453Z,7.93
2023-01-03T18:01:44.584Z,7.77
2023-01-03T18:04:15.453Z,8.17
2023-01-03T18:06:53.679Z,7.92
2023-01-03T18:09:25.681Z,8.02
2023-01-03T18:11:56.088Z,7.99
2023-01-03T18:14:26.585Z,8.06
2023-01-03T18:16:56.833Z,7.93
2023-01-03T18:19:35.983Z,7.98
2023-01-03T18:22:05.888Z,7.95
2023-01-03T18:24:36.503Z,8.06
2023-01-03T18:27:08.822Z,7.90
2023-01-03T18:29:44.707Z,7.84
2023-01-03T18:32:27.119Z,7.82
2023-01-03T18:34:58.288Z,7.77
2023-01-03T18:37:33.900Z,7.82
2023-01-03T18:40:07.457Z,7.89
2023-01-03T18:42:56.375Z,7.73
2023-01-03T18:45:23.481Z,7.93
2023-01-03T18:47:49.537Z,7.59
2023-01-03T18:50:19.281Z,7.93
2023-01-03T18:52:54.709Z,7.92
2023-01-03T18:55:25.635Z,7.88
2023-01-03T18:57:52.268Z,7.88
2023-01-03T19:00:23.839Z,7.87
2023-01-03T19:02:54.478Z,7.65
2023-01-03T19:05:20.780Z,6.12
2023-01-03T19:07:49.202Z,7.91
2023-01-03T19:10:24.255Z,7.83
2023-01-03T19:12:55.641Z,7.81
2023-01-03T19:15:24.794Z,7.70
2023-01-03T19:17:51.605Z,7.74
2023-01-03T19:20:27.052Z,7.82
2023-01-03T19:22:54.347Z,5.53
2023-01-03T19:25:26.100Z,7.65
2023-01-03T19:27:53.760Z,7.53
2023-01-03T19:30:45.803Z,7.45
2023-01-03T19:33:13.742Z,7.56
2023-01-03T19:35:48.406Z,7.75
2023-01-03T19:38:18.517Z,7.56
2023-01-03T19:40:47.901Z,7.55
2023-01-03T19:43:21.180Z,7.43
2023-01-03T19:45:51.414Z,7.37
2023-01-03T19:48:23.784Z,7.20
2023-01-03T19:50:50.342Z,7.56
2023-01-03T19:53:25.138Z,7.47
2023-01-03T19:55:55.518Z,6.96
2023-01-03T19:58:33.710Z,7.41
2023-01-03T20:01:12.433Z,7.27
2023-01-03T20:03:43.398Z,7.57
2023-01-03T20:06:17.079Z,7.59
2023-01-03T20:08:49.020Z,7.03
2023-01-03T20:11:21.234Z,7.64
2023-01-03T20:13:52.045Z,7.46
2023-01-03T20:16:29.008Z,7.77
2023-01-03T20:18:59.200Z,7.72
2023-01-03T20:21:31.339Z,6.13
2023-01-03T20:24:02.677Z,7.54
2023-01-03T20:26:34.083Z,7.38
2023-01-03T20:29:04.747Z,7.66
2023-01-03T20:31:35.288Z,7.81
2023-01-03T20:34:05.934Z,7.79
2023-01-03T20:36:40.271Z,7.37
2023-01-03T20:39:22.188Z,7.61
2023-01-03T20:41:55.481Z,7.28
2023-01-03T20:44:28.726Z,7.74
2023-01-03T20:46:59.833Z,7.73
2023-01-03T20:49:30.127Z,7.59
2023-01-03T20:52:00.588Z,7.56
2023-01-03T20:54:31.031Z,6.74
2023-01-03T20:57:14.493Z,7.55
2023-01-03T20:59:44.646Z,7.56
2023-01-03T21:02:15.129Z,7.32
2023-01-03T21:04:52.455Z,7.38
2023-01-03T21:07:49.623Z,7.44
2023-01-03T21:10:27.423Z,7.55
2023-01-03T21:12:57.536Z,7.57
2023-01-03T21:15:23.803Z,7.58
2023-01-03T21:17:51.244Z,7.82
2023-01-03T21:20:24.844Z,7.84
2023-01-03T21:22:55.532Z,6.45
2023-01-03T21:25:27.882Z,7.22
2023-01-03T21:27:58.797Z,7.40
2023-01-03T21:30:31.021Z,7.13
2023-01-03T21:32:58.857Z,7.52
2023-01-03T21:35:25.132Z,7.73
2023-01-03T21:37:55.395Z,7.50
2023-01-03T21:40:27.420Z,7.21
2023-01-03T21:43:03.737Z,7.42
2023-01-03T21:45:38.787Z,7.38
2023-01-03T21:48:11.853Z,7.56
2023-01-03T21:50:45.655Z,7.51
2023-01-03T21:53:21.170Z,7.12
2023-01-03T21:55:51.841Z,7.46
2023-01-03T21:58:23.337Z,7.37
2023-01-03T22:00:49.550Z,5.61
2023-01-03T22:03:37.991Z,7.28
2023-01-03T22:06:12.317Z,7.08
2023-01-03T22:08:42.296Z,7.13
2023-01-03T22:11:12.964Z,7.23
2023-01-03T22:13:43.011Z,6.81
2023-01-03T22:16:13.300Z,7.25
2023-01-03T22:18:44.435Z,7.02
2023-01-03T22:21:15.041Z,7.01
2023-01-03T22:23:45.361Z,7.16
2023-01-03T22:26:18.850Z,6.95
2023-01-03T22:28:48.792Z,6.92
2023-01-03T22:31:22.112Z,6.97
2023-01-03T22:33:58.259Z,7.09
2023-01-03T22:36:28.365Z,6.98
2023-01-03T22:38:58.299Z,7.01
2023-01-03T22:41:29.418Z,7.16
2023-01-03T22:43:59.877Z,7.08
2023-01-03T22:46:31.145Z,7.02
2023-01-03T22:49:02.148Z,7.09
2023-01-03T22:51:36.733Z,6.99
2023-01-03T22:54:06.432Z,7.00
2023-01-03T22:56:36.963Z,6.83
2023-01-03T22:59:07.365Z,6.93
2023-01-03T23:01:38.058Z,6.80
2023-01-03T23:04:08.528Z,6.80
2023-01-03T23:06:39.297Z,6.92
2023-01-03T23:09:13.121Z,6.87
2023-01-03T23:12:01.980Z,6.68
2023-01-03T23:14:28.283Z,6.81
2023-01-03T23:16:55.074Z,6.31
2023-01-03T23:19:25.516Z,6.87
2023-01-03T23:21:53.369Z,6.70
2023-01-03T23:24:24.360Z,6.76
2023-01-03T23:26:53.562Z,6.80
2023-01-03T23:29:23.085Z,6.78
2023-01-03T23:31:52.887Z,6.58
2023-01-03T23:34:26.398Z,6.76
2023-01-03T23:36:56.403Z,6.76
2023-01-03T23:39:25.855Z,6.21
2023-01-03T23:41:55.733Z,6.70
2023-01-03T23:44:25.881Z,6.68
2023-01-03T23:46:55.034Z,6.44
2023-01-03T23:49:24.631Z,6.62
2023-01-03T23:51:54.407Z,6.54
2023-01-03T23:54:23.886Z,6.64
2023-01-03T23:56:53.679Z,6.75
2023-01-03T23:59:23.271Z,6.69
